sensor_id;sensor_type;location;lat;lon;timestamp;temperature;humidity
584;HTU21D;27024;54.068;12.116;2022-10-17T00:00:41;10.03;98.78
584;HTU21D;27024;54.068;12.116;2022-10-17T00:03:08;10.01;98.69
584;HTU21D;27024;54.068;12.116;2022-10-17T00:05:39;10.05;98.55
584;HTU21D;27024;54.068;12.116;2022-10-17T00:08:06;10.01;98.80
584;HTU21D;27024;54.068;12.116;2022-10-17T00:10:34;10.03;98.77
584;HTU21D;27024;54.068;12.116;2022-10-17T00:13:00;9.97;98.73
584;HTU21D;27024;54.068;12.116;2022-10-17T00:15:27;10.03;98.90
584;HTU21D;27024;54.068;12.116;2022-10-17T00:17:55;9.95;98.93
584;HTU21D;27024;54.068;12.116;2022-10-17T00:20:21;10.00;98.90
584;HTU21D;27024;54.068;12.116;2022-10-17T00:22:48;9.89;98.85
584;HTU21D;27024;54.068;12.116;2022-10-17T00:25:15;9.84;99.04
584;HTU21D;27024;54.068;12.116;2022-10-17T00:27:42;9.78;99.24
584;HTU21D;27024;54.068;12.116;2022-10-17T00:30:11;9.81;99.35
584;HTU21D;27024;54.068;12.116;2022-10-17T00:32:38;9.81;99.32
584;HTU21D;27024;54.068;12.116;2022-10-17T00:35:07;9.81;99.40
584;HTU21D;27024;54.068;12.116;2022-10-17T00:37:34;9.92;99.23
584;HTU21D;27024;54.068;12.116;2022-10-17T00:40:00;9.92;99.05
584;HTU21D;27024;54.068;12.116;2022-10-17T00:42:27;9.93;99.29
584;HTU21D;27024;54.068;12.116;2022-10-17T00:47:35;10.00;99.58
584;HTU21D;27024;54.068;12.116;2022-10-17T00:50:03;10.09;99.49
584;HTU21D;27024;54.068;12.116;2022-10-17T00:52:31;10.15;99.42
584;HTU21D;27024;54.068;12.116;2022-10-17T00:55:09;10.16;99.64
584;HTU21D;27024;54.068;12.116;2022-10-17T00:57:38;10.18;99.41
584;HTU21D;27024;54.068;12.116;2022-10-17T01:00:08;10.18;99.51
584;HTU21D;27024;54.068;12.116;2022-10-17T01:02:36;10.24;99.50
584;HTU21D;27024;54.068;12.116;2022-10-17T01:05:05;10.28;99.26
584;HTU21D;27024;54.068;12.116;2022-10-17T01:07:32;10.28;99.56
584;HTU21D;27024;54.068;12.116;2022-10-17T01:10:04;10.34;98.99
584;HTU21D;27024;54.068;12.116;2022-10-17T01:15:28;10.20;98.97
584;HTU21D;27024;54.068;12.116;2022-10-17T01:26:54;10.51;98.80
584;HTU21D;27024;54.068;12.116;2022-10-17T01:32:01;10.60;98.72
584;HTU21D;27024;54.068;12.116;2022-10-17T01:37:45;10.63;99.10
584;HTU21D;27024;54.068;12.116;2022-10-17T01:40:22;10.59;99.42
584;HTU21D;27024;54.068;12.116;2022-10-17T01:43:11;10.66;99.46
584;HTU21D;27024;54.068;12.116;2022-10-17T01:45:46;10.69;99.35
584;HTU21D;27024;54.068;12.116;2022-10-17T01:48:19;10.81;98.90
584;HTU21D;27024;54.068;12.116;2022-10-17T01:51:02;10.75;99.15
584;HTU21D;27024;54.068;12.116;2022-10-17T01:53:33;10.81;99.15
584;HTU21D;27024;54.068;12.116;2022-10-17T01:56:05;10.81;99.39
584;HTU21D;27024;54.068;12.116;2022-10-17T01:58:41;10.84;99.38
584;HTU21D;27024;54.068;12.116;2022-10-17T02:01:11;10.92;99.15
584;HTU21D;27024;54.068;12.116;2022-10-17T02:03:39;10.95;98.95
584;HTU21D;27024;54.068;12.116;2022-10-17T02:06:07;10.95;98.96
584;HTU21D;27024;54.068;12.116;2022-10-17T02:08:46;10.98;99.13
584;HTU21D;27024;54.068;12.116;2022-10-17T02:11:24;10.95;99.59
584;HTU21D;27024;54.068;12.116;2022-10-17T02:17:00;10.96;99.91
584;HTU21D;27024;54.068;12.116;2022-10-17T02:19:45;11.02;99.56
584;HTU21D;27024;54.068;12.116;2022-10-17T02:22:46;11.07;99.58
584;HTU21D;27024;54.068;12.116;2022-10-17T02:27:47;11.05;99.34
584;HTU21D;27024;54.068;12.116;2022-10-17T02:30:28;11.05;99.49
584;HTU21D;27024;54.068;12.116;2022-10-17T02:32:59;11.07;99.92
584;HTU21D;27024;54.068;12.116;2022-10-17T02:35:31;11.11;99.79
584;HTU21D;27024;54.068;12.116;2022-10-17T02:38:01;11.18;99.79
584;HTU21D;27024;54.068;12.116;2022-10-17T02:40:30;11.20;99.72
584;HTU21D;27024;54.068;12.116;2022-10-17T02:42:58;11.20;99.48
584;HTU21D;27024;54.068;12.116;2022-10-17T02:45:28;11.13;99.27
584;HTU21D;27024;54.068;12.116;2022-10-17T02:48:01;11.11;99.78
584;HTU21D;27024;54.068;12.116;2022-10-17T02:50:56;11.19;99.54
584;HTU21D;27024;54.068;12.116;2022-10-17T02:53:40;11.26;99.16
584;HTU21D;27024;54.068;12.116;2022-10-17T02:56:15;11.20;99.57
584;HTU21D;27024;54.068;12.116;2022-10-17T02:58:51;11.15;99.91
584;HTU21D;27024;54.068;12.116;2022-10-17T03:01:19;11.22;99.91
584;HTU21D;27024;54.068;12.116;2022-10-17T03:03:46;11.27;99.79
584;HTU21D;27024;54.068;12.116;2022-10-17T03:06:13;11.27;99.66
584;HTU21D;27024;54.068;12.116;2022-10-17T03:08:40;11.37;99.24
584;HTU21D;27024;54.068;12.116;2022-10-17T03:11:07;11.37;99.26
584;HTU21D;27024;54.068;12.116;2022-10-17T03:13:34;11.42;98.93
584;HTU21D;27024;54.068;12.116;2022-10-17T03:16:05;11.31;99.22
584;HTU21D;27024;54.068;12.116;2022-10-17T03:18:32;11.37;99.26
584;HTU21D;27024;54.068;12.116;2022-10-17T03:20:58;11.45;98.69
584;HTU21D;27024;54.068;12.116;2022-10-17T03:23:25;11.48;98.71
584;HTU21D;27024;54.068;12.116;2022-10-17T03:25:52;11.46;98.99
584;HTU21D;27024;54.068;12.116;2022-10-17T03:28:18;11.46;98.83
584;HTU21D;27024;54.068;12.116;2022-10-17T03:30:45;11.49;99.03
584;HTU21D;27024;54.068;12.116;2022-10-17T03:33:12;11.54;98.87
584;HTU21D;27024;54.068;12.116;2022-10-17T03:35:39;11.53;99.15
584;HTU21D;27024;54.068;12.116;2022-10-17T03:38:06;11.58;99.08
584;HTU21D;27024;54.068;12.116;2022-10-17T03:40:33;11.60;99.23
584;HTU21D;27024;54.068;12.116;2022-10-17T03:42:59;11.68;98.90
584;HTU21D;27024;54.068;12.116;2022-10-17T03:45:26;11.69;99.41
584;HTU21D;27024;54.068;12.116;2022-10-17T03:47:53;11.58;99.86
584;HTU21D;27024;54.068;12.116;2022-10-17T03:50:20;11.66;100.03
584;HTU21D;27024;54.068;12.116;2022-10-17T03:52:47;11.59;100.83
584;HTU21D;27024;54.068;12.116;2022-10-17T03:55:15;11.54;101.76
584;HTU21D;27024;54.068;12.116;2022-10-17T03:57:42;11.64;101.68
584;HTU21D;27024;54.068;12.116;2022-10-17T04:00:11;11.66;101.84
584;HTU21D;27024;54.068;12.116;2022-10-17T04:02:38;11.73;101.72
584;HTU21D;27024;54.068;12.116;2022-10-17T04:05:05;11.82;101.58
584;HTU21D;27024;54.068;12.116;2022-10-17T04:07:32;11.87;101.73
584;HTU21D;27024;54.068;12.116;2022-10-17T04:09:59;11.92;101.51
584;HTU21D;27024;54.068;12.116;2022-10-17T04:12:25;11.94;101.56
584;HTU21D;27024;54.068;12.116;2022-10-17T04:14:53;11.94;101.58
584;HTU21D;27024;54.068;12.116;2022-10-17T04:17:20;11.96;101.67
584;HTU21D;27024;54.068;12.116;2022-10-17T04:19:48;11.90;102.04
584;HTU21D;27024;54.068;12.116;2022-10-17T04:22:15;11.88;102.41
584;HTU21D;27024;54.068;12.116;2022-10-17T04:24:42;11.87;102.55
584;HTU21D;27024;54.068;12.116;2022-10-17T04:27:10;11.86;102.57
584;HTU21D;27024;54.068;12.116;2022-10-17T04:29:36;11.91;102.59
584;HTU21D;27024;54.068;12.116;2022-10-17T04:32:03;11.90;102.57
584;HTU21D;27024;54.068;12.116;2022-10-17T04:34:30;11.94;102.35
584;HTU21D;27024;54.068;12.116;2022-10-17T04:36:56;12.01;102.26
584;HTU21D;27024;54.068;12.116;2022-10-17T04:39:23;12.05;101.76
584;HTU21D;27024;54.068;12.116;2022-10-17T04:41:50;12.03;101.67
584;HTU21D;27024;54.068;12.116;2022-10-17T04:44:16;12.06;101.86
584;HTU21D;27024;54.068;12.116;2022-10-17T04:46:44;12.06;101.87
584;HTU21D;27024;54.068;12.116;2022-10-17T04:49:11;12.06;101.55
584;HTU21D;27024;54.068;12.116;2022-10-17T04:51:38;12.11;101.49
584;HTU21D;27024;54.068;12.116;2022-10-17T04:54:05;12.12;101.30
584;HTU21D;27024;54.068;12.116;2022-10-17T04:56:32;12.19;101.06
584;HTU21D;27024;54.068;12.116;2022-10-17T04:58:59;12.17;100.93
584;HTU21D;27024;54.068;12.116;2022-10-17T05:01:26;12.21;100.84
584;HTU21D;27024;54.068;12.116;2022-10-17T05:03:53;12.19;100.90
584;HTU21D;27024;54.068;12.116;2022-10-17T05:06:22;12.20;100.96
584;HTU21D;27024;54.068;12.116;2022-10-17T05:08:49;12.17;101.06
584;HTU21D;27024;54.068;12.116;2022-10-17T05:11:22;12.22;101.29
584;HTU21D;27024;54.068;12.116;2022-10-17T05:13:51;12.08;101.53
584;HTU21D;27024;54.068;12.116;2022-10-17T05:16:18;12.17;101.60
584;HTU21D;27024;54.068;12.116;2022-10-17T05:18:54;12.12;101.56
584;HTU21D;27024;54.068;12.116;2022-10-17T05:21:23;12.16;101.53
584;HTU21D;27024;54.068;12.116;2022-10-17T05:23:50;12.22;101.38
584;HTU21D;27024;54.068;12.116;2022-10-17T05:26:17;12.22;101.36
584;HTU21D;27024;54.068;12.116;2022-10-17T05:28:44;12.23;101.34
584;HTU21D;27024;54.068;12.116;2022-10-17T05:31:11;12.21;101.54
584;HTU21D;27024;54.068;12.116;2022-10-17T05:33:39;12.28;101.97
584;HTU21D;27024;54.068;12.116;2022-10-17T05:36:06;12.27;101.57
584;HTU21D;27024;54.068;12.116;2022-10-17T05:38:33;12.25;101.59
584;HTU21D;27024;54.068;12.116;2022-10-17T05:41:03;12.22;101.77
584;HTU21D;27024;54.068;12.116;2022-10-17T05:43:30;12.27;101.30
584;HTU21D;27024;54.068;12.116;2022-10-17T05:45:57;12.28;101.11
584;HTU21D;27024;54.068;12.116;2022-10-17T05:48:24;12.31;100.77
584;HTU21D;27024;54.068;12.116;2022-10-17T05:50:57;12.37;100.37
584;HTU21D;27024;54.068;12.116;2022-10-17T05:53:24;12.33;100.46
584;HTU21D;27024;54.068;12.116;2022-10-17T05:55:58;12.40;100.38
584;HTU21D;27024;54.068;12.116;2022-10-17T05:58:27;12.46;99.89
584;HTU21D;27024;54.068;12.116;2022-10-17T06:01:14;12.47;99.68
584;HTU21D;27024;54.068;12.116;2022-10-17T06:03:41;12.52;99.42
584;HTU21D;27024;54.068;12.116;2022-10-17T06:06:10;12.64;99.13
584;HTU21D;27024;54.068;12.116;2022-10-17T06:08:38;12.69;98.84
584;HTU21D;27024;54.068;12.116;2022-10-17T06:11:05;12.76;98.69
584;HTU21D;27024;54.068;12.116;2022-10-17T06:13:36;12.78;98.12
584;HTU21D;27024;54.068;12.116;2022-10-17T06:16:03;12.78;97.59
584;HTU21D;27024;54.068;12.116;2022-10-17T06:18:30;12.78;97.81
584;HTU21D;27024;54.068;12.116;2022-10-17T06:21:05;12.82;97.78
584;HTU21D;27024;54.068;12.116;2022-10-17T06:23:33;12.79;97.46
584;HTU21D;27024;54.068;12.116;2022-10-17T06:26:01;12.80;97.25
584;HTU21D;27024;54.068;12.116;2022-10-17T06:28:28;12.79;96.96
584;HTU21D;27024;54.068;12.116;2022-10-17T06:30:55;12.78;97.22
584;HTU21D;27024;54.068;12.116;2022-10-17T06:33:22;12.81;96.87
584;HTU21D;27024;54.068;12.116;2022-10-17T06:35:53;12.86;96.65
584;HTU21D;27024;54.068;12.116;2022-10-17T06:38:21;12.89;95.92
584;HTU21D;27024;54.068;12.116;2022-10-17T06:40:48;12.90;95.73
584;HTU21D;27024;54.068;12.116;2022-10-17T06:43:14;12.93;95.51
584;HTU21D;27024;54.068;12.116;2022-10-17T06:45:44;12.97;95.10
584;HTU21D;27024;54.068;12.116;2022-10-17T06:48:11;12.97;95.78
584;HTU21D;27024;54.068;12.116;2022-10-17T06:50:38;13.32;95.75
584;HTU21D;27024;54.068;12.116;2022-10-17T06:53:05;13.55;96.28
584;HTU21D;27024;54.068;12.116;2022-10-17T06:55:32;13.34;93.23
584;HTU21D;27024;54.068;12.116;2022-10-17T06:57:58;13.43;92.97
584;HTU21D;27024;54.068;12.116;2022-10-17T07:00:25;13.35;93.08
584;HTU21D;27024;54.068;12.116;2022-10-17T07:02:52;13.39;92.93
584;HTU21D;27024;54.068;12.116;2022-10-17T07:05:18;13.43;93.01
584;HTU21D;27024;54.068;12.116;2022-10-17T07:07:45;13.50;92.73
584;HTU21D;27024;54.068;12.116;2022-10-17T07:10:17;13.54;92.59
584;HTU21D;27024;54.068;12.116;2022-10-17T07:12:44;13.62;92.32
584;HTU21D;27024;54.068;12.116;2022-10-17T07:15:11;13.77;91.60
584;HTU21D;27024;54.068;12.116;2022-10-17T07:17:38;13.91;90.16
584;HTU21D;27024;54.068;12.116;2022-10-17T07:20:05;13.96;89.79
584;HTU21D;27024;54.068;12.116;2022-10-17T07:22:32;14.14;89.47
584;HTU21D;27024;54.068;12.116;2022-10-17T07:24:59;14.12;89.30
584;HTU21D;27024;54.068;12.116;2022-10-17T07:27:26;14.24;88.99
584;HTU21D;27024;54.068;12.116;2022-10-17T07:29:53;14.33;89.34
584;HTU21D;27024;54.068;12.116;2022-10-17T07:32:20;14.42;88.14
584;HTU21D;27024;54.068;12.116;2022-10-17T07:34:47;14.57;87.88
584;HTU21D;27024;54.068;12.116;2022-10-17T07:37:13;14.56;87.88
584;HTU21D;27024;54.068;12.116;2022-10-17T07:39:40;14.64;88.23
584;HTU21D;27024;54.068;12.116;2022-10-17T07:42:07;14.67;87.96
584;HTU21D;27024;54.068;12.116;2022-10-17T07:44:34;14.75;87.16
584;HTU21D;27024;54.068;12.116;2022-10-17T07:47:01;14.83;86.87
584;HTU21D;27024;54.068;12.116;2022-10-17T07:49:27;14.91;86.78
584;HTU21D;27024;54.068;12.116;2022-10-17T07:51:55;14.97;87.00
584;HTU21D;27024;54.068;12.116;2022-10-17T07:54:22;15.15;86.80
584;HTU21D;27024;54.068;12.116;2022-10-17T07:56:48;15.39;86.10
584;HTU21D;27024;54.068;12.116;2022-10-17T07:59:17;15.55;85.42
584;HTU21D;27024;54.068;12.116;2022-10-17T08:01:43;15.75;84.22
584;HTU21D;27024;54.068;12.116;2022-10-17T08:04:10;15.77;84.83
584;HTU21D;27024;54.068;12.116;2022-10-17T08:06:37;15.77;85.00
584;HTU21D;27024;54.068;12.116;2022-10-17T08:09:04;15.95;84.35
584;HTU21D;27024;54.068;12.116;2022-10-17T08:11:31;16.07;83.74
584;HTU21D;27024;54.068;12.116;2022-10-17T08:13:57;16.19;83.35
584;HTU21D;27024;54.068;12.116;2022-10-17T08:16:24;16.26;83.18
584;HTU21D;27024;54.068;12.116;2022-10-17T08:18:51;16.39;82.42
584;HTU21D;27024;54.068;12.116;2022-10-17T08:21:17;16.54;82.23
584;HTU21D;27024;54.068;12.116;2022-10-17T08:23:44;16.70;81.46
584;HTU21D;27024;54.068;12.116;2022-10-17T08:26:12;16.88;80.52
584;HTU21D;27024;54.068;12.116;2022-10-17T08:28:42;17.04;80.31
584;HTU21D;27024;54.068;12.116;2022-10-17T08:31:15;17.31;79.57
584;HTU21D;27024;54.068;12.116;2022-10-17T08:33:44;17.59;78.56
584;HTU21D;27024;54.068;12.116;2022-10-17T08:36:13;18.06;77.08
584;HTU21D;27024;54.068;12.116;2022-10-17T08:38:44;18.21;76.92
584;HTU21D;27024;54.068;12.116;2022-10-17T08:44:18;18.77;74.78
584;HTU21D;27024;54.068;12.116;2022-10-17T08:46:49;19.27;73.04
584;HTU21D;27024;54.068;12.116;2022-10-17T08:49:37;19.43;72.11
584;HTU21D;27024;54.068;12.116;2022-10-17T08:52:19;19.86;71.31
584;HTU21D;27024;54.068;12.116;2022-10-17T08:54:48;20.48;69.68
584;HTU21D;27024;54.068;12.116;2022-10-17T08:57:16;20.18;70.34
584;HTU21D;27024;54.068;12.116;2022-10-17T08:59:44;20.31;70.29
584;HTU21D;27024;54.068;12.116;2022-10-17T09:08:19;21.69;65.87
584;HTU21D;27024;54.068;12.116;2022-10-17T09:11:02;21.66;65.86
584;HTU21D;27024;54.068;12.116;2022-10-17T09:16:33;22.19;62.98
584;HTU21D;27024;54.068;12.116;2022-10-17T09:19:09;22.29;62.53
584;HTU21D;27024;54.068;12.116;2022-10-17T09:24:22;21.65;64.72
584;HTU21D;27024;54.068;12.116;2022-10-17T09:26:51;20.80;68.55
584;HTU21D;27024;54.068;12.116;2022-10-17T09:29:24;20.63;69.33
584;HTU21D;27024;54.068;12.116;2022-10-17T09:32:15;20.00;71.84
584;HTU21D;27024;54.068;12.116;2022-10-17T09:34:43;19.83;73.22
584;HTU21D;27024;54.068;12.116;2022-10-17T09:37:12;19.61;74.30
584;HTU21D;27024;54.068;12.116;2022-10-17T09:39:41;19.60;74.51
584;HTU21D;27024;54.068;12.116;2022-10-17T09:42:12;19.51;75.50
584;HTU21D;27024;54.068;12.116;2022-10-17T09:50:31;19.40;77.08
584;HTU21D;27024;54.068;12.116;2022-10-17T09:53:02;19.87;75.28
584;HTU21D;27024;54.068;12.116;2022-10-17T09:55:48;19.65;76.39
584;HTU21D;27024;54.068;12.116;2022-10-17T09:58:20;19.60;76.54
584;HTU21D;27024;54.068;12.116;2022-10-17T10:00:47;20.01;75.82
584;HTU21D;27024;54.068;12.116;2022-10-17T10:03:21;19.58;76.70
584;HTU21D;27024;54.068;12.116;2022-10-17T10:08:27;19.84;76.04
584;HTU21D;27024;54.068;12.116;2022-10-17T10:11:08;19.97;76.18
584;HTU21D;27024;54.068;12.116;2022-10-17T10:13:39;19.87;77.29
584;HTU21D;27024;54.068;12.116;2022-10-17T10:16:17;20.16;76.16
584;HTU21D;27024;54.068;12.116;2022-10-17T10:18:44;20.37;75.70
584;HTU21D;27024;54.068;12.116;2022-10-17T10:21:16;20.53;75.21
584;HTU21D;27024;54.068;12.116;2022-10-17T10:24:01;20.76;74.75
584;HTU21D;27024;54.068;12.116;2022-10-17T10:26:45;20.79;73.93
584;HTU21D;27024;54.068;12.116;2022-10-17T10:29:29;20.90;73.45
584;HTU21D;27024;54.068;12.116;2022-10-17T10:32:11;21.04;74.40
584;HTU21D;27024;54.068;12.116;2022-10-17T10:37:44;20.91;73.22
584;HTU21D;27024;54.068;12.116;2022-10-17T10:40:43;21.07;72.22
584;HTU21D;27024;54.068;12.116;2022-10-17T10:43:32;21.16;72.19
584;HTU21D;27024;54.068;12.116;2022-10-17T10:46:01;21.06;71.96
584;HTU21D;27024;54.068;12.116;2022-10-17T10:48:33;21.13;72.15
584;HTU21D;27024;54.068;12.116;2022-10-17T10:56:33;21.84;69.34
584;HTU21D;27024;54.068;12.116;2022-10-17T11:04:41;21.91;69.84
584;HTU21D;27024;54.068;12.116;2022-10-17T11:07:20;21.93;70.62
584;HTU21D;27024;54.068;12.116;2022-10-17T11:12:42;21.87;70.61
584;HTU21D;27024;54.068;12.116;2022-10-17T11:15:30;21.45;71.88
584;HTU21D;27024;54.068;12.116;2022-10-17T11:18:06;21.65;70.90
584;HTU21D;27024;54.068;12.116;2022-10-17T11:20:55;21.87;70.02
584;HTU21D;27024;54.068;12.116;2022-10-17T11:23:47;21.83;70.40
584;HTU21D;27024;54.068;12.116;2022-10-17T11:26:26;21.83;70.27
584;HTU21D;27024;54.068;12.116;2022-10-17T11:28:58;21.91;70.19
584;HTU21D;27024;54.068;12.116;2022-10-17T11:31:35;21.81;71.13
584;HTU21D;27024;54.068;12.116;2022-10-17T11:34:34;21.95;70.96
584;HTU21D;27024;54.068;12.116;2022-10-17T11:37:05;21.73;71.29
584;HTU21D;27024;54.068;12.116;2022-10-17T11:39:46;22.22;69.74
584;HTU21D;27024;54.068;12.116;2022-10-17T11:42:23;21.92;70.23
584;HTU21D;27024;54.068;12.116;2022-10-17T11:45:01;22.13;70.86
584;HTU21D;27024;54.068;12.116;2022-10-17T11:47:46;21.85;71.19
584;HTU21D;27024;54.068;12.116;2022-10-17T11:50:24;22.18;70.26
584;HTU21D;27024;54.068;12.116;2022-10-17T11:55:44;22.19;69.13
584;HTU21D;27024;54.068;12.116;2022-10-17T12:07:09;22.35;69.53
584;HTU21D;27024;54.068;12.116;2022-10-17T12:09:45;21.75;71.03
584;HTU21D;27024;54.068;12.116;2022-10-17T12:12:29;21.91;71.74
584;HTU21D;27024;54.068;12.116;2022-10-17T12:17:42;21.74;72.83
584;HTU21D;27024;54.068;12.116;2022-10-17T12:22:47;21.51;73.99
584;HTU21D;27024;54.068;12.116;2022-10-17T12:25:18;21.66;73.71
584;HTU21D;27024;54.068;12.116;2022-10-17T12:27:49;21.39;75.21
584;HTU21D;27024;54.068;12.116;2022-10-17T12:35:36;21.34;76.19
584;HTU21D;27024;54.068;12.116;2022-10-17T12:54:00;22.01;73.24
584;HTU21D;27024;54.068;12.116;2022-10-17T12:56:44;22.08;72.78
584;HTU21D;27024;54.068;12.116;2022-10-17T12:59:18;22.02;73.12
584;HTU21D;27024;54.068;12.116;2022-10-17T13:01:48;21.91;73.48
584;HTU21D;27024;54.068;12.116;2022-10-17T13:04:17;21.79;73.28
584;HTU21D;27024;54.068;12.116;2022-10-17T13:06:46;21.68;73.29
584;HTU21D;27024;54.068;12.116;2022-10-17T13:09:34;21.62;73.80
584;HTU21D;27024;54.068;12.116;2022-10-17T13:12:05;21.57;74.28
584;HTU21D;27024;54.068;12.116;2022-10-17T13:14:41;21.55;74.35
584;HTU21D;27024;54.068;12.116;2022-10-17T13:17:21;21.50;74.61
584;HTU21D;27024;54.068;12.116;2022-10-17T13:19:48;21.38;75.38
584;HTU21D;27024;54.068;12.116;2022-10-17T13:22:20;21.40;75.50
584;HTU21D;27024;54.068;12.116;2022-10-17T13:24:49;21.42;75.28
584;HTU21D;27024;54.068;12.116;2022-10-17T13:27:33;21.38;75.44
584;HTU21D;27024;54.068;12.116;2022-10-17T13:30:21;21.31;76.47
584;HTU21D;27024;54.068;12.116;2022-10-17T13:32:50;21.16;77.25
584;HTU21D;27024;54.068;12.116;2022-10-17T13:35:34;21.10;76.91
584;HTU21D;27024;54.068;12.116;2022-10-17T13:38:26;20.99;76.53
584;HTU21D;27024;54.068;12.116;2022-10-17T13:40:54;20.88;77.24
584;HTU21D;27024;54.068;12.116;2022-10-17T13:43:37;20.95;77.08
584;HTU21D;27024;54.068;12.116;2022-10-17T13:46:05;20.89;77.68
584;HTU21D;27024;54.068;12.116;2022-10-17T13:48:52;20.90;77.50
584;HTU21D;27024;54.068;12.116;2022-10-17T13:51:19;20.85;77.83
584;HTU21D;27024;54.068;12.116;2022-10-17T13:53:46;20.63;78.14
584;HTU21D;27024;54.068;12.116;2022-10-17T13:56:26;20.65;77.87
584;HTU21D;27024;54.068;12.116;2022-10-17T13:58:59;20.57;77.94
584;HTU21D;27024;54.068;12.116;2022-10-17T14:01:28;20.57;78.11
584;HTU21D;27024;54.068;12.116;2022-10-17T14:03:55;20.51;78.61
584;HTU21D;27024;54.068;12.116;2022-10-17T14:06:43;20.44;78.67
584;HTU21D;27024;54.068;12.116;2022-10-17T14:09:22;20.47;79.01
584;HTU21D;27024;54.068;12.116;2022-10-17T14:12:01;20.37;79.23
584;HTU21D;27024;54.068;12.116;2022-10-17T14:14:28;20.40;79.17
584;HTU21D;27024;54.068;12.116;2022-10-17T14:17:12;20.30;79.76
584;HTU21D;27024;54.068;12.116;2022-10-17T14:19:39;20.41;79.46
584;HTU21D;27024;54.068;12.116;2022-10-17T14:22:16;20.31;79.89
584;HTU21D;27024;54.068;12.116;2022-10-17T14:24:44;20.19;79.99
584;HTU21D;27024;54.068;12.116;2022-10-17T14:27:53;20.18;79.50
584;HTU21D;27024;54.068;12.116;2022-10-17T14:30:34;20.15;79.87
584;HTU21D;27024;54.068;12.116;2022-10-17T14:33:24;20.16;79.88
584;HTU21D;27024;54.068;12.116;2022-10-17T14:35:54;20.17;80.14
584;HTU21D;27024;54.068;12.116;2022-10-17T14:38:21;20.16;80.33
584;HTU21D;27024;54.068;12.116;2022-10-17T14:43:35;20.14;80.55
584;HTU21D;27024;54.068;12.116;2022-10-17T14:46:02;20.13;81.17
584;HTU21D;27024;54.068;12.116;2022-10-17T14:48:29;20.01;81.75
584;HTU21D;27024;54.068;12.116;2022-10-17T14:51:10;20.03;81.81
584;HTU21D;27024;54.068;12.116;2022-10-17T14:53:38;20.01;81.78
584;HTU21D;27024;54.068;12.116;2022-10-17T14:56:21;20.04;81.19
584;HTU21D;27024;54.068;12.116;2022-10-17T14:58:48;19.96;81.68
584;HTU21D;27024;54.068;12.116;2022-10-17T15:01:15;19.99;81.21
584;HTU21D;27024;54.068;12.116;2022-10-17T15:03:42;20.04;81.26
584;HTU21D;27024;54.068;12.116;2022-10-17T15:06:25;20.02;81.19
584;HTU21D;27024;54.068;12.116;2022-10-17T15:08:52;19.97;81.70
584;HTU21D;27024;54.068;12.116;2022-10-17T15:11:19;19.97;81.55
584;HTU21D;27024;54.068;12.116;2022-10-17T15:13:46;20.03;81.30
584;HTU21D;27024;54.068;12.116;2022-10-17T15:16:19;20.01;81.41
584;HTU21D;27024;54.068;12.116;2022-10-17T15:18:47;19.95;81.71
584;HTU21D;27024;54.068;12.116;2022-10-17T15:21:17;19.87;82.14
584;HTU21D;27024;54.068;12.116;2022-10-17T15:24:04;19.88;82.23
584;HTU21D;27024;54.068;12.116;2022-10-17T15:26:33;19.87;82.70
584;HTU21D;27024;54.068;12.116;2022-10-17T15:29:00;19.81;82.86
584;HTU21D;27024;54.068;12.116;2022-10-17T15:31:28;19.83;83.39
584;HTU21D;27024;54.068;12.116;2022-10-17T15:33:56;19.73;84.17
584;HTU21D;27024;54.068;12.116;2022-10-17T15:36:28;19.74;84.25
584;HTU21D;27024;54.068;12.116;2022-10-17T15:38:58;19.62;84.87
584;HTU21D;27024;54.068;12.116;2022-10-17T15:41:30;19.58;84.92
584;HTU21D;27024;54.068;12.116;2022-10-17T15:43:58;19.52;85.87
584;HTU21D;27024;54.068;12.116;2022-10-17T15:46:29;19.50;85.83
584;HTU21D;27024;54.068;12.116;2022-10-17T15:49:01;19.45;86.28
584;HTU21D;27024;54.068;12.116;2022-10-17T15:51:29;19.45;86.35
584;HTU21D;27024;54.068;12.116;2022-10-17T15:53:56;19.36;86.70
584;HTU21D;27024;54.068;12.116;2022-10-17T15:56:27;19.32;86.74
584;HTU21D;27024;54.068;12.116;2022-10-17T15:58:55;19.37;86.96
584;HTU21D;27024;54.068;12.116;2022-10-17T16:01:25;19.30;87.45
584;HTU21D;27024;54.068;12.116;2022-10-17T16:03:52;19.16;88.51
584;HTU21D;27024;54.068;12.116;2022-10-17T16:06:21;19.21;88.91
584;HTU21D;27024;54.068;12.116;2022-10-17T16:08:48;19.09;89.31
584;HTU21D;27024;54.068;12.116;2022-10-17T16:13:52;18.93;91.93
584;HTU21D;27024;54.068;12.116;2022-10-17T16:16:20;18.91;91.46
584;HTU21D;27024;54.068;12.116;2022-10-17T16:18:48;18.80;92.83
584;HTU21D;27024;54.068;12.116;2022-10-17T16:21:16;18.78;92.05
584;HTU21D;27024;54.068;12.116;2022-10-17T16:23:43;18.83;91.81
584;HTU21D;27024;54.068;12.116;2022-10-17T16:26:10;18.79;91.50
584;HTU21D;27024;54.068;12.116;2022-10-17T16:28:42;18.77;91.67
584;HTU21D;27024;54.068;12.116;2022-10-17T16:31:23;18.69;92.03
584;HTU21D;27024;54.068;12.116;2022-10-17T16:33:51;18.79;91.54
584;HTU21D;27024;54.068;12.116;2022-10-17T16:36:19;18.82;91.05
584;HTU21D;27024;54.068;12.116;2022-10-17T16:38:46;18.80;91.47
584;HTU21D;27024;54.068;12.116;2022-10-17T16:43:48;18.70;91.84
584;HTU21D;27024;54.068;12.116;2022-10-17T16:46:15;18.67;92.34
584;HTU21D;27024;54.068;12.116;2022-10-17T16:48:43;18.66;92.46
584;HTU21D;27024;54.068;12.116;2022-10-17T16:51:15;18.63;92.48
584;HTU21D;27024;54.068;12.116;2022-10-17T16:53:44;18.70;92.28
584;HTU21D;27024;54.068;12.116;2022-10-17T16:56:14;18.59;92.88
584;HTU21D;27024;54.068;12.116;2022-10-17T16:58:42;18.62;92.90
584;HTU21D;27024;54.068;12.116;2022-10-17T17:01:11;18.55;93.27
584;HTU21D;27024;54.068;12.116;2022-10-17T17:03:40;18.54;93.60
584;HTU21D;27024;54.068;12.116;2022-10-17T17:06:10;18.50;94.00
584;HTU21D;27024;54.068;12.116;2022-10-17T17:08:37;18.46;94.58
584;HTU21D;27024;54.068;12.116;2022-10-17T17:11:09;18.42;95.04
584;HTU21D;27024;54.068;12.116;2022-10-17T17:13:36;18.29;95.87
584;HTU21D;27024;54.068;12.116;2022-10-17T17:16:33;18.37;95.79
584;HTU21D;27024;54.068;12.116;2022-10-17T17:19:06;18.34;96.04
584;HTU21D;27024;54.068;12.116;2022-10-17T17:21:33;18.32;96.13
584;HTU21D;27024;54.068;12.116;2022-10-17T17:24:01;18.35;95.95
584;HTU21D;27024;54.068;12.116;2022-10-17T17:26:31;18.26;96.42
584;HTU21D;27024;54.068;12.116;2022-10-17T17:28:59;18.18;96.92
584;HTU21D;27024;54.068;12.116;2022-10-17T17:31:28;18.07;97.59
584;HTU21D;27024;54.068;12.116;2022-10-17T17:33:55;18.08;97.51
584;HTU21D;27024;54.068;12.116;2022-10-17T17:36:25;18.15;97.28
584;HTU21D;27024;54.068;12.116;2022-10-17T17:38:54;18.13;96.49
584;HTU21D;27024;54.068;12.116;2022-10-17T17:41:21;18.08;96.65
584;HTU21D;27024;54.068;12.116;2022-10-17T17:43:49;18.05;96.60
584;HTU21D;27024;54.068;12.116;2022-10-17T17:46:18;18.11;95.82